Time;durP1;ratioP1;P1;durP2;ratioP2;P2;SDS_P1;SDS_P2;PMS_P1;PMS_P2;Temp;Humidity;BMP_temperature;BMP_pressure;BME280_temperature;BME280_humidity;BME280_pressure;Samples;Min_cycle;Max_cycle;Signal;HPM_P1;HPM_P2
2023/09/21 00:01:07;;;;;;;5.50;3.50;;;;;;;;;;112747;210;40883;-35
2023/09/21 00:03:42;;;;;;;5.40;3.30;;;;;;;;;;112823;210;41046;-35
2023/09/21 00:06:19;;;;;;;5.80;3.40;;;;;;;;;;112763;210;43054;-35
2023/09/21 00:08:53;;;;;;;4.80;3.10;;;;;;;;;;112613;210;42228;-35
2023/09/21 00:11:30;;;;;;;4.70;3.10;;;;;;;;;;112587;210;40017;-36
2023/09/21 00:14:09;;;;;;;5.00;3.40;;;;;;;;;;112560;210;41019;-35
2023/09/21 00:16:44;;;;;;;5.10;3.40;;;;;;;;;;112544;210;42769;-35
2023/09/21 00:19:22;;;;;;;5.20;3.20;;;;;;;;;;112550;210;42283;-35
2023/09/21 00:22:01;;;;;;;5.40;3.30;;;;;;;;;;112593;210;39771;-35
2023/09/21 00:24:38;;;;;;;5.40;3.20;;;;;;;;;;112551;210;40473;-35
2023/09/21 00:27:17;;;;;;;5.30;3.20;;;;;;;;;;112570;210;42807;-35
2023/09/21 00:29:52;;;;;;;5.50;3.30;;;;;;;;;;112568;210;42363;-35
2023/09/21 00:32:26;;;;;;;5.10;3.30;;;;;;;;;;112663;210;38751;-35
2023/09/21 00:35:09;;;;;;;4.70;3.20;;;;;;;;;;112592;210;39968;-35
2023/09/21 00:37:46;;;;;;;5.10;3.20;;;;;;;;;;112501;210;64454;-35
2023/09/21 00:40:28;;;;;;;5.20;3.40;;;;;;;;;;112585;210;41846;-35
2023/09/21 00:43:06;;;;;;;;;;;;;;;;;;112640;210;38990;-35
2023/09/21 00:45:53;;;;;;;5.30;3.30;;;;;;;;;;112552;210;39693;-35
2023/09/21 00:48:36;;;;;;;5.70;3.50;;;;;;;;;;112607;210;48698;-35
2023/09/21 00:51:16;;;;;;;5.30;3.30;;;;;;;;;;112575;210;42461;-35
2023/09/21 00:53:54;;;;;;;5.30;3.30;;;;;;;;;;112586;210;38752;-35
2023/09/21 00:56:32;;;;;;;6.00;3.20;;;;;;;;;;112573;210;39628;-35
2023/09/21 00:59:15;;;;;;;5.10;3.30;;;;;;;;;;112551;210;44218;-35
2023/09/21 01:01:52;;;;;;;5.00;3.30;;;;;;;;;;112633;210;42463;-35
2023/09/21 01:04:28;;;;;;;5.00;3.20;;;;;;;;;;112654;210;38815;-35
2023/09/21 01:07:17;;;;;;;5.70;3.50;;;;;;;;;;112560;210;39359;-35
2023/09/21 01:09:52;;;;;;;5.00;3.30;;;;;;;;;;112572;210;43106;-36
2023/09/21 01:12:28;;;;;;;5.00;3.10;;;;;;;;;;112578;210;42061;-35
2023/09/21 01:15:10;;;;;;;5.10;3.20;;;;;;;;;;112577;210;38706;-35
2023/09/21 01:17:50;;;;;;;5.10;3.10;;;;;;;;;;112565;210;39789;-35
2023/09/21 01:20:32;;;;;;;5.10;3.40;;;;;;;;;;112567;210;42728;-35
2023/09/21 01:23:19;;;;;;;5.70;3.70;;;;;;;;;;112640;210;42083;-35
2023/09/21 01:25:55;;;;;;;5.10;3.50;;;;;;;;;;112561;210;38464;-35
2023/09/21 01:28:30;;;;;;;5.00;3.30;;;;;;;;;;112522;210;40205;-35
2023/09/21 01:31:05;;;;;;;5.80;3.30;;;;;;;;;;112559;210;42939;-36
2023/09/21 01:33:41;;;;;;;5.90;3.40;;;;;;;;;;112586;210;42032;-35
2023/09/21 01:36:18;;;;;;;5.60;3.40;;;;;;;;;;112616;210;38929;-35
2023/09/21 01:38:59;;;;;;;5.50;3.50;;;;;;;;;;112520;210;39621;-35
2023/09/21 01:41:36;;;;;;;5.40;3.40;;;;;;;;;;112566;210;45237;-35
2023/09/21 01:44:19;;;;;;;5.50;3.50;;;;;;;;;;112557;210;42063;-35
2023/09/21 01:46:56;;;;;;;6.00;4.00;;;;;;;;;;112583;210;39281;-35
2023/09/21 01:49:30;;;;;;;6.10;3.70;;;;;;;;;;112557;210;45489;-35
2023/09/21 01:52:06;;;;;;;5.40;3.50;;;;;;;;;;112620;210;42748;-35
2023/09/21 01:54:43;;;;;;;5.30;3.50;;;;;;;;;;112605;210;42261;-35
2023/09/21 01:57:19;;;;;;;5.60;3.80;;;;;;;;;;112601;210;38777;-35
2023/09/21 01:59:56;;;;;;;5.10;3.80;;;;;;;;;;112598;210;39830;-35
2023/09/21 02:02:34;;;;;;;5.80;3.90;;;;;;;;;;112595;210;42909;-35
2023/09/21 02:05:12;;;;;;;5.60;3.60;;;;;;;;;;112538;210;42042;-35
2023/09/21 02:07:48;;;;;;;5.60;3.70;;;;;;;;;;112533;210;39016;-35
2023/09/21 02:10:25;;;;;;;5.40;3.70;;;;;;;;;;112549;210;39906;-35
2023/09/21 02:13:06;;;;;;;5.70;3.90;;;;;;;;;;112563;210;43117;-35
2023/09/21 02:15:43;;;;;;;6.30;3.80;;;;;;;;;;112588;210;42282;-35
2023/09/21 02:18:21;;;;;;;5.60;3.60;;;;;;;;;;112515;210;38713;-35
2023/09/21 02:20:57;;;;;;;6.10;4.00;;;;;;;;;;112534;210;39550;-35
2023/09/21 02:23:31;;;;;;;6.20;4.00;;;;;;;;;;112387;210;43175;-35
2023/09/21 02:26:06;;;;;;;6.60;3.90;;;;;;;;;;112580;210;43444;-35
2023/09/21 02:28:42;;;;;;;5.50;3.90;;;;;;;;;;112520;210;38874;-35
2023/09/21 02:31:16;;;;;;;5.80;3.90;;;;;;;;;;112563;210;39759;-35
2023/09/21 02:33:52;;;;;;;5.90;3.80;;;;;;;;;;112549;210;42975;-35
2023/09/21 02:36:28;;;;;;;5.20;4.00;;;;;;;;;;112559;210;42183;-35
2023/09/21 02:39:02;;;;;;;6.10;4.10;;;;;;;;;;112517;210;38927;-35
2023/09/21 02:41:42;;;;;;;5.70;3.70;;;;;;;;;;112574;210;39725;-35
2023/09/21 02:44:17;;;;;;;6.20;3.90;;;;;;;;;;112422;210;44287;-35
2023/09/21 02:46:53;;;;;;;5.50;3.50;;;;;;;;;;112575;210;42627;-35
2023/09/21 02:49:30;;;;;;;6.10;3.90;;;;;;;;;;112529;210;38719;-35
2023/09/21 02:52:05;;;;;;;6.00;4.20;;;;;;;;;;112544;210;39757;-35
2023/09/21 02:54:42;;;;;;;5.40;3.80;;;;;;;;;;112571;210;45015;-35
2023/09/21 02:57:22;;;;;;;5.90;3.80;;;;;;;;;;112566;210;42556;-35
2023/09/21 02:59:56;;;;;;;5.80;4.00;;;;;;;;;;112544;210;38839;-35
2023/09/21 03:02:34;;;;;;;5.80;3.90;;;;;;;;;;112573;210;39652;-35
2023/09/21 03:05:11;;;;;;;5.70;4.10;;;;;;;;;;112611;210;43866;-35
2023/09/21 03:07:46;;;;;;;5.90;4.30;;;;;;;;;;112607;210;42024;-35
2023/09/21 03:10:25;;;;;;;6.20;4.40;;;;;;;;;;112520;210;38921;-34
2023/09/21 03:13:00;;;;;;;6.60;4.20;;;;;;;;;;112471;210;175565;-35
2023/09/21 03:15:37;;;;;;;5.80;4.30;;;;;;;;;;112655;210;42510;-35
2023/09/21 03:18:13;;;;;;;5.80;4.40;;;;;;;;;;112564;210;42339;-35
2023/09/21 03:20:52;;;;;;;6.10;4.40;;;;;;;;;;112599;210;38884;-35
2023/09/21 03:23:28;;;;;;;6.00;4.40;;;;;;;;;;112595;210;39831;-35
2023/09/21 03:26:05;;;;;;;5.90;4.40;;;;;;;;;;112618;210;42988;-35
2023/09/21 03:28:41;;;;;;;5.90;4.30;;;;;;;;;;112561;210;42050;-35
2023/09/21 03:31:15;;;;;;;6.40;4.40;;;;;;;;;;112571;210;38861;-35
2023/09/21 03:33:50;;;;;;;6.10;4.50;;;;;;;;;;112545;210;39858;-35
2023/09/21 03:36:25;;;;;;;6.20;4.60;;;;;;;;;;112556;210;43012;-35
2023/09/21 03:39:08;;;;;;;6.00;4.10;;;;;;;;;;112582;210;42086;-35
2023/09/21 03:41:45;;;;;;;5.90;4.30;;;;;;;;;;112559;210;38699;-35
2023/09/21 03:44:19;;;;;;;6.30;4.50;;;;;;;;;;112557;210;39980;-35
2023/09/21 03:46:54;;;;;;;6.90;4.50;;;;;;;;;;112597;210;43081;-35
2023/09/21 03:49:34;;;;;;;5.90;4.50;;;;;;;;;;112595;210;41821;-35
2023/09/21 03:52:16;;;;;;;6.70;4.60;;;;;;;;;;112540;210;44688;-35
2023/09/21 03:54:52;;;;;;;5.90;4.30;;;;;;;;;;112644;210;39515;-35
2023/09/21 03:57:27;;;;;;;6.30;4.50;;;;;;;;;;112548;210;42745;-34
2023/09/21 04:00:07;;;;;;;6.20;4.60;;;;;;;;;;112584;210;42046;-35
2023/09/21 04:02:45;;;;;;;7.40;5.00;;;;;;;;;;112598;210;44897;-35
2023/09/21 04:05:23;;;;;;;6.30;4.40;;;;;;;;;;112527;210;41095;-35
2023/09/21 04:07:57;;;;;;;6.40;4.80;;;;;;;;;;112588;210;44297;-35
2023/09/21 04:10:32;;;;;;;6.80;4.80;;;;;;;;;;112527;210;42054;-35
2023/09/21 04:13:15;;;;;;;6.00;4.40;;;;;;;;;;112573;210;38840;-35
2023/09/21 04:15:48;;;;;;;6.20;4.50;;;;;;;;;;112581;210;39834;-35
2023/09/21 04:18:29;;;;;;;6.70;4.30;;;;;;;;;;112543;210;43861;-35
2023/09/21 04:21:11;;;;;;;6.40;4.70;;;;;;;;;;112572;210;42086;-35
2023/09/21 04:23:53;;;;;;;6.60;4.60;;;;;;;;;;112595;210;39953;-35
2023/09/21 04:26:28;;;;;;;6.30;4.60;;;;;;;;;;112587;210;41302;-36
2023/09/21 04:29:07;;;;;;;6.60;4.40;;;;;;;;;;112551;210;44167;-36
2023/09/21 04:31:42;;;;;;;6.30;4.70;;;;;;;;;;112537;210;42251;-35
2023/09/21 04:34:18;;;;;;;6.00;4.10;;;;;;;;;;112573;210;38767;-35
2023/09/21 04:36:52;;;;;;;5.70;4.20;;;;;;;;;;112589;210;39739;-35
2023/09/21 04:39:30;;;;;;;6.50;4.60;;;;;;;;;;112584;210;42913;-35
2023/09/21 04:42:05;;;;;;;5.80;4.50;;;;;;;;;;112631;210;42522;-35
2023/09/21 04:44:43;;;;;;;6.40;4.20;;;;;;;;;;112587;210;38514;-35
2023/09/21 04:47:18;;;;;;;5.90;4.30;;;;;;;;;;112596;210;39896;-35
2023/09/21 04:49:54;;;;;;;6.80;4.70;;;;;;;;;;112636;210;43061;-36
2023/09/21 04:52:34;;;;;;;6.10;4.60;;;;;;;;;;112573;210;42232;-35
2023/09/21 04:55:09;;;;;;;6.80;4.30;;;;;;;;;;112621;210;38690;-35
2023/09/21 04:57:43;;;;;;;6.00;4.40;;;;;;;;;;112687;210;40877;-35
2023/09/21 05:00:20;;;;;;;6.10;4.40;;;;;;;;;;112626;210;44059;-35
2023/09/21 05:03:02;;;;;;;6.80;4.40;;;;;;;;;;112584;210;42329;-35
2023/09/21 05:05:40;;;;;;;6.20;4.40;;;;;;;;;;111944;210;893263;-35
2023/09/21 05:08:15;;;;;;;6.10;4.50;;;;;;;;;;112662;210;39759;-37
2023/09/21 05:10:50;;;;;;;7.60;4.40;;;;;;;;;;112657;210;43035;-36
2023/09/21 05:13:27;;;;;;;7.20;4.50;;;;;;;;;;112578;210;42318;-35
2023/09/21 05:16:01;;;;;;;7.30;4.50;;;;;;;;;;112724;210;38780;-35
2023/09/21 05:18:36;;;;;;;6.50;4.50;;;;;;;;;;111960;210;894725;-35
2023/09/21 05:21:11;;;;;;;6.50;4.50;;;;;;;;;;112711;210;42740;-35
2023/09/21 05:23:45;;;;;;;7.00;4.60;;;;;;;;;;112558;210;42181;-35
2023/09/21 05:26:19;;;;;;;7.10;4.70;;;;;;;;;;112640;210;38985;-35
2023/09/21 05:28:54;;;;;;;6.20;4.60;;;;;;;;;;112628;210;39636;-36
2023/09/21 05:31:28;;;;;;;6.60;4.70;;;;;;;;;;112654;210;42506;-36
2023/09/21 05:34:03;;;;;;;6.30;4.70;;;;;;;;;;112675;210;42251;-36
2023/09/21 05:36:37;;;;;;;6.10;4.40;;;;;;;;;;112551;210;192912;-36
2023/09/21 05:39:11;;;;;;;6.60;4.60;;;;;;;;;;112669;210;39321;-36
2023/09/21 05:41:45;;;;;;;6.90;4.70;;;;;;;;;;112707;210;44048;-36
2023/09/21 05:44:24;;;;;;;7.20;4.60;;;;;;;;;;112602;210;42120;-36
2023/09/21 05:46:59;;;;;;;6.60;4.50;;;;;;;;;;112616;210;38724;-36
2023/09/21 05:49:34;;;;;;;7.50;4.60;;;;;;;;;;112683;210;39952;-36
2023/09/21 05:52:12;;;;;;;6.30;4.40;;;;;;;;;;112674;210;42981;-36
2023/09/21 05:54:45;;;;;;;7.40;4.80;;;;;;;;;;112608;210;47649;-36
2023/09/21 05:57:19;;;;;;;6.40;4.50;;;;;;;;;;112669;210;38750;-36
2023/09/21 05:59:53;;;;;;;7.50;4.80;;;;;;;;;;112685;210;39788;-36
2023/09/21 06:02:28;;;;;;;6.40;4.60;;;;;;;;;;112699;210;44120;-36
2023/09/21 06:05:03;;;;;;;7.90;4.30;;;;;;;;;;112750;210;47798;-36
2023/09/21 06:07:38;;;;;;;6.40;4.50;;;;;;;;;;112693;210;38767;-37
2023/09/21 06:10:13;;;;;;;6.10;4.50;;;;;;;;;;112674;210;40845;-37
2023/09/21 06:12:47;;;;;;;6.60;4.50;;;;;;;;;;112680;210;44119;-37
2023/09/21 06:18:43;;;;;;;6.00;4.40;;;;;;;;;;112016;214;38935;-40
2023/09/21 06:21:20;;;;;;;5.80;4.60;;;;;;;;;;112039;215;39611;-37
2023/09/21 06:23:54;;;;;;;5.70;4.20;;;;;;;;;;112042;215;42811;-38
2023/09/21 06:26:29;;;;;;;6.70;4.50;;;;;;;;;;112069;215;43263;-35
2023/09/21 06:29:03;;;;;;;5.80;4.00;;;;;;;;;;112097;215;38943;-34
2023/09/21 06:31:37;;;;;;;6.60;4.30;;;;;;;;;;112074;214;39650;-37
2023/09/21 06:34:12;;;;;;;6.60;4.30;;;;;;;;;;112044;214;42915;-33
2023/09/21 06:36:45;;;;;;;6.60;4.20;;;;;;;;;;112075;214;42137;-33
2023/09/21 06:39:21;;;;;;;6.10;4.00;;;;;;;;;;112135;215;38698;-34
2023/09/21 06:41:55;;;;;;;6.40;4.20;;;;;;;;;;111992;215;175027;-34
2023/09/21 06:44:29;;;;;;;6.00;4.10;;;;;;;;;;112066;215;43039;-36
2023/09/21 06:47:03;;;;;;;7.00;4.60;;;;;;;;;;112103;215;41963;-38
2023/09/21 06:49:37;;;;;;;6.80;4.20;;;;;;;;;;107251;214;3011536;-35
2023/09/21 06:52:13;;;;;;;7.40;4.10;;;;;;;;;;112075;215;25108;-35
2023/09/21 06:54:47;;;;;;;6.80;4.50;;;;;;;;;;112000;215;42992;-35
2023/09/21 06:57:23;;;;;;;6.90;4.40;;;;;;;;;;111935;215;195283;-35
2023/09/21 07:00:00;;;;;;;7.60;4.40;;;;;;;;;;112019;215;40164;-35
2023/09/21 07:02:34;;;;;;;7.30;4.10;;;;;;;;;;112023;215;40902;-35
2023/09/21 07:05:12;;;;;;;6.10;4.10;;;;;;;;;;111992;215;44155;-35
2023/09/21 07:07:48;;;;;;;7.00;4.20;;;;;;;;;;112057;215;42343;-35
2023/09/21 07:10:22;;;;;;;7.30;4.10;;;;;;;;;;112018;215;40016;-35
2023/09/21 07:12:56;;;;;;;7.30;4.40;;;;;;;;;;112096;214;39882;-34
2023/09/21 07:15:30;;;;;;;7.20;4.20;;;;;;;;;;112075;214;43326;-35
2023/09/21 07:18:07;;;;;;;7.00;4.40;;;;;;;;;;112095;214;43309;-39
2023/09/21 07:20:41;;;;;;;6.60;4.10;;;;;;;;;;112162;214;38716;-35
2023/09/21 07:23:16;;;;;;;6.20;4.20;;;;;;;;;;112087;214;40990;-36
2023/09/21 07:25:49;;;;;;;6.90;4.40;;;;;;;;;;112073;214;42503;-35
2023/09/21 07:28:27;;;;;;;6.20;4.20;;;;;;;;;;112137;215;42660;-34
2023/09/21 07:31:01;;;;;;;5.70;4.10;;;;;;;;;;111971;214;175519;-35
2023/09/21 07:33:36;;;;;;;6.50;4.20;;;;;;;;;;112068;214;39623;-34
2023/09/21 07:36:15;;;;;;;6.50;4.40;;;;;;;;;;112078;214;42788;-34
2023/09/21 07:38:53;;;;;;;7.20;4.50;;;;;;;;;;112071;215;42085;-35
2023/09/21 07:41:28;;;;;;;6.40;4.20;;;;;;;;;;112088;214;41153;-35
2023/09/21 07:44:03;;;;;;;6.20;4.30;;;;;;;;;;112105;214;41755;-34
2023/09/21 07:46:38;;;;;;;7.40;4.40;;;;;;;;;;112032;215;42970;-34
2023/09/21 07:49:13;;;;;;;5.70;4.10;;;;;;;;;;112098;214;42296;-33
2023/09/21 07:51:47;;;;;;;6.10;4.20;;;;;;;;;;112103;214;38955;-34
2023/09/21 07:54:21;;;;;;;7.40;4.60;;;;;;;;;;112056;214;39781;-32
2023/09/21 07:56:57;;;;;;;5.90;4.50;;;;;;;;;;112039;214;42824;-33
2023/09/21 07:59:31;;;;;;;6.20;4.70;;;;;;;;;;112065;214;42269;-33
2023/09/21 08:02:09;;;;;;;6.30;4.50;;;;;;;;;;112078;214;38935;-33
2023/09/21 08:04:44;;;;;;;6.00;4.60;;;;;;;;;;111968;214;175526;-33
2023/09/21 08:07:23;;;;;;;6.10;4.40;;;;;;;;;;112029;214;43121;-33
2023/09/21 08:10:01;;;;;;;6.70;4.60;;;;;;;;;;112093;214;42300;-32
2023/09/21 08:12:36;;;;;;;7.50;4.70;;;;;;;;;;112124;214;38891;-33
2023/09/21 08:15:11;;;;;;;5.80;4.40;;;;;;;;;;112086;214;39811;-33
2023/09/21 08:17:46;;;;;;;6.70;4.90;;;;;;;;;;112052;214;43109;-33
2023/09/21 08:20:24;;;;;;;6.50;4.50;;;;;;;;;;112090;214;42273;-33
2023/09/21 08:22:58;;;;;;;7.40;4.60;;;;;;;;;;112101;214;38777;-32
2023/09/21 08:25:35;;;;;;;6.90;5.00;;;;;;;;;;112044;214;39574;-33
2023/09/21 08:28:10;;;;;;;6.20;4.70;;;;;;;;;;112062;214;48785;-33
2023/09/21 08:30:47;;;;;;;6.50;4.70;;;;;;;;;;112090;214;42088;-33
2023/09/21 08:33:22;;;;;;;6.60;4.70;;;;;;;;;;112050;214;38491;-33
2023/09/21 08:35:58;;;;;;;7.50;4.80;;;;;;;;;;112042;214;39621;-35
2023/09/21 08:38:35;;;;;;;6.40;4.20;;;;;;;;;;111778;214;258071;-34
2023/09/21 08:41:12;;;;;;;6.50;4.30;;;;;;;;;;111950;214;175498;-35
2023/09/21 08:43:47;;;;;;;7.00;4.10;;;;;;;;;;112091;214;38723;-35
2023/09/21 08:46:22;;;;;;;6.30;4.30;;;;;;;;;;112038;214;39790;-33
2023/09/21 08:49:00;;;;;;;7.10;4.40;;;;;;;;;;112091;214;42766;-33
2023/09/21 08:51:37;;;;;;;6.20;4.30;;;;;;;;;;112074;214;42050;-33
2023/09/21 08:54:16;;;;;;;6.00;4.20;;;;;;;;;;112154;214;38889;-33
2023/09/21 08:56:55;;;;;;;6.10;4.10;;;;;;;;;;112077;214;39585;-33
2023/09/21 08:59:31;;;;;;;6.40;4.10;;;;;;;;;;112093;214;43134;-33
2023/09/21 09:02:11;;;;;;;5.60;4.10;;;;;;;;;;112087;214;42403;-33
2023/09/21 09:04:48;;;;;;;6.20;3.80;;;;;;;;;;112155;214;38714;-33
2023/09/21 09:07:22;;;;;;;5.40;3.90;;;;;;;;;;112084;214;39688;-33
2023/09/21 09:09:55;;;;;;;6.30;3.90;;;;;;;;;;112190;214;42777;-33
2023/09/21 09:12:29;;;;;;;6.20;4.00;;;;;;;;;;112066;214;42126;-34
2023/09/21 09:15:05;;;;;;;6.10;3.90;;;;;;;;;;112079;214;38749;-34
2023/09/21 09:17:42;;;;;;;6.20;4.20;;;;;;;;;;112084;214;39877;-34
2023/09/21 09:20:19;;;;;;;5.60;4.40;;;;;;;;;;112047;214;42916;-34
2023/09/21 09:22:53;;;;;;;6.00;3.90;;;;;;;;;;112095;214;42291;-34
2023/09/21 09:25:28;;;;;;;6.60;4.00;;;;;;;;;;112065;214;38913;-34
2023/09/21 09:28:03;;;;;;;6.00;4.10;;;;;;;;;;112038;215;39942;-34
2023/09/21 09:30:38;;;;;;;6.40;4.30;;;;;;;;;;112037;215;42698;-33
2023/09/21 09:33:15;;;;;;;5.50;3.80;;;;;;;;;;112056;215;42429;-33
2023/09/21 09:35:51;;;;;;;5.40;3.90;;;;;;;;;;112060;215;38735;-34
2023/09/21 09:38:27;;;;;;;6.00;3.90;;;;;;;;;;112031;215;39725;-34
2023/09/21 09:41:05;;;;;;;5.70;4.00;;;;;;;;;;112044;215;42912;-35
2023/09/21 09:43:45;;;;;;;6.00;3.80;;;;;;;;;;112048;215;42477;-34
2023/09/21 09:46:23;;;;;;;6.30;4.00;;;;;;;;;;112083;215;38911;-34
2023/09/21 09:49:01;;;;;;;5.40;4.00;;;;;;;;;;112024;215;39853;-35
2023/09/21 09:51:44;;;;;;;6.10;3.80;;;;;;;;;;112103;215;43187;-34
2023/09/21 09:54:21;;;;;;;6.30;4.20;;;;;;;;;;112087;215;42445;-34
2023/09/21 09:56:58;;;;;;;5.60;3.70;;;;;;;;;;112042;215;38796;-34
2023/09/21 09:59:35;;;;;;;6.10;3.90;;;;;;;;;;112035;215;39636;-34
2023/09/21 10:02:12;;;;;;;7.10;3.80;;;;;;;;;;112097;215;42762;-34
2023/09/21 10:04:48;;;;;;;6.10;3.40;;;;;;;;;;112095;215;42047;-37
2023/09/21 10:07:22;;;;;;;6.40;3.80;;;;;;;;;;112060;215;38899;-33
2023/09/21 10:09:57;;;;;;;7.50;3.70;;;;;;;;;;112014;215;39634;-34
2023/09/21 10:12:32;;;;;;;5.40;3.50;;;;;;;;;;112053;215;43250;-35
2023/09/21 10:15:09;;;;;;;6.00;3.50;;;;;;;;;;112028;215;42184;-35
2023/09/21 10:17:45;;;;;;;5.90;3.80;;;;;;;;;;112101;215;38723;-36
2023/09/21 10:20:27;;;;;;;5.40;3.30;;;;;;;;;;111984;215;40074;-37
2023/09/21 10:23:09;;;;;;;6.10;3.60;;;;;;;;;;112072;215;43130;-41
2023/09/21 10:25:53;;;;;;;5.70;3.20;;;;;;;;;;112062;214;42024;-38
2023/09/21 10:28:37;;;;;;;6.10;3.50;;;;;;;;;;112050;215;38884;-39
2023/09/21 10:31:29;;;;;;;5.40;3.40;;;;;;;;;;112065;215;45758;-38
2023/09/21 10:34:18;;;;;;;5.40;3.40;;;;;;;;;;112023;215;42650;-38
2023/09/21 10:37:00;;;;;;;5.60;3.30;;;;;;;;;;112070;215;42276;-38
2023/09/21 10:39:37;;;;;;;5.70;3.40;;;;;;;;;;111994;215;38885;-38
2023/09/21 10:42:36;;;;;;;5.40;3.30;;;;;;;;;;112021;215;39778;-37
2023/09/21 10:45:14;;;;;;;5.60;3.50;;;;;;;;;;112040;215;43096;-38
2023/09/21 10:47:52;;;;;;;5.20;3.20;;;;;;;;;;112033;215;42489;-37
2023/09/21 10:50:28;;;;;;;5.60;3.40;;;;;;;;;;112043;215;38914;-36
2023/09/21 10:53:05;;;;;;;6.10;3.10;;;;;;;;;;112087;215;40195;-36
2023/09/21 10:55:43;;;;;;;5.40;3.10;;;;;;;;;;112057;215;42933;-37
2023/09/21 10:58:21;;;;;;;4.80;2.90;;;;;;;;;;112030;215;42054;-36
2023/09/21 11:00:55;;;;;;;5.90;3.30;;;;;;;;;;112001;215;38791;-36
2023/09/21 11:03:31;;;;;;;5.10;3.20;;;;;;;;;;112075;215;39951;-36
2023/09/21 11:06:06;;;;;;;5.60;3.00;;;;;;;;;;112075;215;42509;-35
2023/09/21 11:08:43;;;;;;;5.20;3.20;;;;;;;;;;112128;215;42064;-38
2023/09/21 11:11:21;;;;;;;4.70;3.00;;;;;;;;;;112033;215;39040;-36
2023/09/21 11:13:55;;;;;;;5.10;2.90;;;;;;;;;;112072;215;39657;-36
2023/09/21 11:16:30;;;;;;;5.80;2.90;;;;;;;;;;112091;215;42958;-36
2023/09/21 11:19:09;;;;;;;6.40;3.10;;;;;;;;;;112054;215;44512;-38
2023/09/21 11:21:47;;;;;;;5.10;2.90;;;;;;;;;;112014;215;39861;-36
2023/09/21 11:24:23;;;;;;;5.00;2.90;;;;;;;;;;112078;215;39776;-38
2023/09/21 11:27:00;;;;;;;5.90;3.30;;;;;;;;;;112080;214;42510;-37
2023/09/21 11:29:39;;;;;;;4.60;2.80;;;;;;;;;;112031;215;43479;-38
2023/09/21 11:32:17;;;;;;;5.30;2.90;;;;;;;;;;112135;215;45715;-38
2023/09/21 11:35:00;;;;;;;4.40;2.70;;;;;;;;;;112088;215;39619;-37
2023/09/21 11:37:35;;;;;;;5.30;2.60;;;;;;;;;;112063;215;42477;-37
2023/09/21 11:40:13;;;;;;;4.50;2.90;;;;;;;;;;111992;215;42308;-37
2023/09/21 11:42:50;;;;;;;4.70;3.00;;;;;;;;;;112083;215;45266;-39
2023/09/21 11:45:26;;;;;;;4.80;2.90;;;;;;;;;;112006;215;39713;-35
2023/09/21 11:48:01;;;;;;;4.60;2.90;;;;;;;;;;112064;215;44937;-36
2023/09/21 11:50:38;;;;;;;4.70;2.80;;;;;;;;;;112049;215;42173;-35
2023/09/21 11:53:19;;;;;;;5.30;2.80;;;;;;;;;;112039;215;38441;-36
2023/09/21 11:55:53;;;;;;;6.30;2.90;;;;;;;;;;112006;215;38912;-36
2023/09/21 11:58:33;;;;;;;4.90;3.10;;;;;;;;;;112070;215;42962;-36
2023/09/21 12:01:19;;;;;;;4.40;3.00;;;;;;;;;;112032;215;42097;-36
2023/09/21 12:03:54;;;;;;;5.70;2.80;;;;;;;;;;112056;215;39027;-37
2023/09/21 12:06:28;;;;;;;5.70;3.10;;;;;;;;;;112110;215;39833;-36
2023/09/21 12:09:07;;;;;;;4.90;2.70;;;;;;;;;;112094;215;42772;-39
2023/09/21 12:11:48;;;;;;;4.60;2.80;;;;;;;;;;112012;214;42495;-36
2023/09/21 12:14:24;;;;;;;5.20;2.60;;;;;;;;;;112103;214;38929;-39
2023/09/21 12:17:02;;;;;;;4.90;2.80;;;;;;;;;;111953;214;175098;-37
2023/09/21 12:19:39;;;;;;;4.80;2.70;;;;;;;;;;112130;214;42815;-36
2023/09/21 12:22:16;;;;;;;4.40;2.90;;;;;;;;;;112078;214;42359;-36
2023/09/21 12:24:53;;;;;;;4.80;2.70;;;;;;;;;;112092;214;38714;-37
2023/09/21 12:27:31;;;;;;;5.40;2.80;;;;;;;;;;112128;214;39489;-35
2023/09/21 12:30:12;;;;;;;5.80;3.00;;;;;;;;;;112117;214;42800;-37
2023/09/21 12:32:46;;;;;;;5.80;2.90;;;;;;;;;;112042;214;42090;-37
2023/09/21 12:35:25;;;;;;;5.20;2.90;;;;;;;;;;112075;214;38704;-36
2023/09/21 12:38:00;;;;;;;5.40;3.00;;;;;;;;;;111404;214;893021;-36
2023/09/21 12:40:36;;;;;;;5.10;2.90;;;;;;;;;;112100;214;42940;-36
2023/09/21 12:43:12;;;;;;;5.40;3.00;;;;;;;;;;112042;214;42160;-36
2023/09/21 12:45:47;;;;;;;4.80;2.80;;;;;;;;;;112097;214;38875;-35
2023/09/21 12:48:21;;;;;;;5.00;2.80;;;;;;;;;;112112;214;39712;-36
2023/09/21 12:50:57;;;;;;;4.80;2.80;;;;;;;;;;112118;214;42973;-36
2023/09/21 12:53:33;;;;;;;5.00;3.10;;;;;;;;;;112012;214;43276;-34
2023/09/21 12:56:09;;;;;;;5.00;2.90;;;;;;;;;;112043;214;38569;-37
2023/09/21 12:58:42;;;;;;;5.20;2.80;;;;;;;;;;112097;214;39727;-36
2023/09/21 13:01:16;;;;;;;4.80;2.90;;;;;;;;;;112064;214;42873;-35
2023/09/21 13:03:50;;;;;;;6.30;3.00;;;;;;;;;;112016;214;42143;-35
2023/09/21 13:06:24;;;;;;;5.40;3.00;;;;;;;;;;112075;214;41305;-36
2023/09/21 13:08:59;;;;;;;4.50;2.70;;;;;;;;;;112069;214;39657;-39
2023/09/21 13:11:36;;;;;;;5.90;3.00;;;;;;;;;;112103;214;43090;-35
2023/09/21 13:14:10;;;;;;;4.90;2.70;;;;;;;;;;112073;214;42429;-36
2023/09/21 13:16:45;;;;;;;4.80;2.80;;;;;;;;;;111972;214;175436;-37
2023/09/21 13:19:22;;;;;;;5.40;2.80;;;;;;;;;;112126;214;40648;-37
2023/09/21 13:22:00;;;;;;;4.70;2.70;;;;;;;;;;112074;214;43067;-37
2023/09/21 13:24:37;;;;;;;4.90;2.60;;;;;;;;;;112074;214;47899;-36
2023/09/21 13:27:11;;;;;;;4.80;2.70;;;;;;;;;;112028;214;39884;-37
2023/09/21 13:29:46;;;;;;;4.50;2.70;;;;;;;;;;112069;214;40866;-37
2023/09/21 13:32:25;;;;;;;5.10;2.50;;;;;;;;;;112013;214;42841;-37
2023/09/21 13:34:59;;;;;;;4.50;2.50;;;;;;;;;;112055;214;42225;-37
2023/09/21 13:37:35;;;;;;;4.80;2.40;;;;;;;;;;112051;215;38985;-37
2023/09/21 13:40:13;;;;;;;4.60;2.60;;;;;;;;;;112050;214;39801;-36
2023/09/21 13:42:47;;;;;;;5.00;2.70;;;;;;;;;;112067;214;44334;-36
2023/09/21 13:45:21;;;;;;;4.30;2.50;;;;;;;;;;112077;214;43187;-36
2023/09/21 13:47:59;;;;;;;4.70;2.50;;;;;;;;;;112096;214;38614;-36
2023/09/21 13:50:34;;;;;;;4.40;2.40;;;;;;;;;;112092;214;39646;-36
2023/09/21 13:53:11;;;;;;;4.40;2.50;;;;;;;;;;112045;214;44000;-36
2023/09/21 13:55:48;;;;;;;4.20;2.50;;;;;;;;;;111966;214;177691;-36
2023/09/21 13:58:22;;;;;;;5.00;2.40;;;;;;;;;;112078;214;38917;-36
2023/09/21 14:01:03;;;;;;;4.50;2.30;;;;;;;;;;112062;214;40876;-36
2023/09/21 14:03:38;;;;;;;4.20;2.40;;;;;;;;;;112017;214;44251;-36
2023/09/21 14:06:13;;;;;;;4.80;2.50;;;;;;;;;;112053;214;42386;-36
2023/09/21 14:08:49;;;;;;;4.80;2.50;;;;;;;;;;112108;214;38941;-38
2023/09/21 14:11:24;;;;;;;4.00;2.20;;;;;;;;;;112105;214;40150;-38
2023/09/21 14:13:58;;;;;;;4.70;2.30;;;;;;;;;;112044;214;43152;-34
2023/09/21 14:16:34;;;;;;;4.70;2.30;;;;;;;;;;112055;214;43227;-33
2023/09/21 14:19:09;;;;;;;4.20;2.20;;;;;;;;;;111434;214;891392;-36
2023/09/21 14:21:44;;;;;;;4.20;2.20;;;;;;;;;;112086;214;40010;-36
2023/09/21 14:24:21;;;;;;;4.30;2.30;;;;;;;;;;112023;214;43544;-36
2023/09/21 14:26:56;;;;;;;4.40;2.30;;;;;;;;;;112110;214;42042;-35
2023/09/21 14:29:32;;;;;;;4.80;2.30;;;;;;;;;;112105;214;38760;-34
2023/09/21 14:32:06;;;;;;;3.90;2.30;;;;;;;;;;112132;214;39962;-34
2023/09/21 14:34:41;;;;;;;5.10;2.30;;;;;;;;;;112065;214;42764;-38
2023/09/21 14:37:16;;;;;;;3.70;2.20;;;;;;;;;;112075;214;42175;-36
2023/09/21 14:39:51;;;;;;;4.60;2.30;;;;;;;;;;112126;214;39677;-36
2023/09/21 14:42:26;;;;;;;4.50;2.10;;;;;;;;;;112123;214;39821;-36
2023/09/21 14:45:00;;;;;;;4.50;2.10;;;;;;;;;;112078;214;43119;-35
2023/09/21 14:47:38;;;;;;;3.70;2.10;;;;;;;;;;112121;214;42259;-36
2023/09/21 14:50:13;;;;;;;4.10;2.00;;;;;;;;;;112077;214;38858;-37
2023/09/21 14:52:47;;;;;;;5.70;2.00;;;;;;;;;;112137;214;39934;-36
2023/09/21 14:55:21;;;;;;;4.30;2.10;;;;;;;;;;112050;214;42807;-34
2023/09/21 14:57:56;;;;;;;3.70;2.00;;;;;;;;;;112101;214;43595;-34
2023/09/21 15:00:29;;;;;;;4.20;2.00;;;;;;;;;;112112;214;38542;-34
2023/09/21 15:03:07;;;;;;;4.60;2.10;;;;;;;;;;112075;214;39543;-34
2023/09/21 15:05:44;;;;;;;3.70;1.90;;;;;;;;;;112039;214;42975;-35
2023/09/21 15:08:19;;;;;;;4.10;1.80;;;;;;;;;;112048;214;42089;-35
2023/09/21 15:10:54;;;;;;;4.00;1.80;;;;;;;;;;112167;214;38691;-36
2023/09/21 15:13:27;;;;;;;4.80;1.90;;;;;;;;;;112121;214;39718;-36
2023/09/21 15:16:01;;;;;;;4.70;2.00;;;;;;;;;;112084;214;44125;-35
2023/09/21 15:18:36;;;;;;;4.30;1.90;;;;;;;;;;112040;214;42058;-35
2023/09/21 15:21:13;;;;;;;4.10;1.90;;;;;;;;;;112043;214;38923;-36
2023/09/21 15:23:46;;;;;;;3.90;1.90;;;;;;;;;;112098;214;39580;-35
2023/09/21 15:26:20;;;;;;;3.60;1.60;;;;;;;;;;112025;214;42780;-34
2023/09/21 15:28:53;;;;;;;3.80;1.70;;;;;;;;;;112124;214;42066;-34
2023/09/21 15:31:27;;;;;;;4.10;1.80;;;;;;;;;;111999;214;174898;-34
2023/09/21 15:34:02;;;;;;;4.20;1.90;;;;;;;;;;112056;214;39702;-35
2023/09/21 15:36:35;;;;;;;4.10;1.60;;;;;;;;;;112085;214;42980;-35
2023/09/21 15:39:09;;;;;;;4.60;1.70;;;;;;;;;;112118;214;41933;-35
2023/09/21 15:41:45;;;;;;;3.90;1.80;;;;;;;;;;112109;214;38753;-36